Decoded Metar for LKMT (OSTRAVA in CZECH REPUBLIC) (IATA:OSR) | Meteo·Mobile Aviation Weather
aviador You're here:

LKMT Decoded Metar

OSTRAVA in CZECH REPUBLIC
Report Time2019-08-19 18:00:00
UTC Time2019-08-19 18:24:17
Flight Rules vfr VFR
Wind080° at 04 kt
W.Decomp.*RWY 04: 3.2 kt HW 2.4 kt RCW
Visibility9999 m
Phenomena:N/A
Clouds:Overcast 049 Hf
Expected CloudBase > 2,400 ft AGL from Temp-Dew spread
Ceiling4,900 ft
Temp23°C (ISA +10)
Dew Point17°C (69% RH)
QNH1019 hPa
Density Alt2,021 ft
Elevation840 ft
Report Wrong Elevation
Raw Report
LKMT 191800Z 08004KT 9999 OVC049 23/17 Q1019 NOSIG=

Extra information for LKMT:More info

Metar Taf Metar & Taf Last 4 Metars F.Rules Stats Wind Profile Meteogram Temp Stats Airport Information Weather charts Add Link Nearby VenuesMetar ALERT Operation Metar Decoded Social comments